Impacts METAR Board INFO
IDs:

KSLC - Salt Lake City Intl, UT, US

Updated at: 1711 UTC 14 Dec 2017
Potential Impact None Slight Moderate High
Time14/05Z 14/06Z 14/07Z 14/08Z 14/09Z 14/10Z 14/11Z 14/12Z 14/13Z 14/14Z 14/15Z 14/16Z 14/17Z
VIS5 5 5 5 4 4 5 6 6 6 6 5 6
CIG18 17 15 -- -- -- 12 55 -- -- -- -- --
CoverOVCOVCOVCFEWSCTSCTBKNBKNFEWFEWFEWFEWFEW
FltCatMVFRMVFRMVFRMVFRMVFRMVFRMVFRVFRVFRVFRVFRMVFRVFR
WXBRBRBRBRBRBRBRBRBRBRBRBRHZ
WDir340340340203403600109000150170
WSpd8 7 9 7 5 9 0 7 3 0 0 4 6
WGst-- -- -- -- -- -- -- -- -- -- -- -- --
Raw hourly METARs
KSLC 140454Z 34008KT 5SM BR BKN018 OVC045 M01/M03 A3029 RMK AO2 SLP280 T10111033
KSLC 140554Z 34007KT 5SM BR FEW007 BKN017 OVC028 M02/M03 A3030 RMK AO2 SLP287 T10171028 11011 21017 53014
KSLC 140654Z 34009KT 5SM BR FEW007 BKN015 OVC024 M02/M03 A3031 RMK AO2 SLP288 T10171028 410111056
KSLC 140805Z 02007KT 5SM BR FEW007 FEW011 M03/M04 A3030 RMK AO2 T10331044
KSLC 140854Z 34005KT 4SM BR SCT014 M03/M04 A3031 RMK AO2 SLP289 T10331044 52004
KSLC 140954Z 36009KT 4SM BR FEW007 SCT050 M04/M05 A3034 RMK AO2 SLP299 T10391050
KSLC 141054Z 00000KT 5SM BR BKN012 M03/M04 A3036 RMK AO2 SLP302 T10281039
KSLC 141154Z 01007KT 6SM BR SCT012 BKN055 M02/M04 A3037 RMK AO2 SLP303 T10221039 11017 21044 51007
KSLC 141254Z 09003KT 6SM BR FEW012 FEW055 M03/M06 A3038 RMK AO2 SLP310 T10331056
KSLC 141354Z COR 00000KT 6SM BR FEW015 FEW055 M03/M04 A3040 RMK AO2 SLP316 T10281044
KSLC 141454Z 00000KT 6SM BR FEW025 FEW200 M03/M04 A3042 RMK AO2 SLP325 T10331044 53017
KSLC 141554Z 15004KT 5SM BR FEW035 M02/M04 A3043 RMK AO2 SLP325 T10221039
KSLC 141654Z 17006KT 6SM HZ FEW030 M01/M03 A3045 RMK AO2 SLP328 T10061033